La Grande Rivière Airport
CYGL : now visible

Airfield :











YOU CAN JOIN US ON...

 
LOGIN :

Register | Disclaimer

   EN    FR    IT 

 









Legend :    VFR   Marginal VFR   IFR   Intensive IFR   Very Intensive IFR
Visi :
Ceiling :
>= 8 km
>= 3000ft
5 to 8 km
1000 to 3000 ft
1500m to 5 km
500 to 1000 ft
800 to 1500m
200 to 500 ft
< 800m
< 200 ft
Symbols :   Thunderstorms  Fog  Heavy snow  Heavy precipitations  Wind > 20 kt






- Airport Elevation : 639 ft
- IATA code : YGL


CYGL - La Grande Rivière

CURRENT METAR :
  • 210300Z 11014KT 15SM IC FEW100 M24/M26 A2972 RMK AC1 SLP093

EXPIRED METARs :
  • 210200Z 12013KT 10SM IC SCT100 M23/M26 A2975 RMK AC3 SLP102
  • 210100Z 12010KT 10SM IC SCT100 M24/M27 A2976 RMK AC3 SLP106

TAF TAF CYGL
Valid from the 21 at 00:00 until the 22 at 00:00 UTC


202338Z 2100/2124 11010KT P6SM FEW015 BKN100
TEMPO 2100/2106 5SM IC
FM210600 10008KT P6SM FEW008 BKN100
TEMPO 2106/2115 5SM IC
PROB30 2106/2115 2SM IC BKN008 BKN100
FM211500 09010KT P6SM FEW010 SCT120
FM212200 07008KT P6SM IC FEW006 RMK NXT FCST BY 210600Z
CZUL FIR / North America



MET'MAP, your aeronautical weather chart ! - Copyright ORBIFLY December 2007 - Disclaimer

ORBIFLY MET'MAP TEAM :

Programming & Development : Alexandra Zaïnal
Concept & original design : Baudouin d'Aumeries
Assistance for programming : Marc-Olivier Méhu
Technical & hardware support : Manuel Goepfert

Contact : metmap@orbifly.com




SOURCES & CREDITS :

   NOAA       Earth
Advisory